Time;durP1;ratioP1;P1;durP2;ratioP2;P2;SDS_P1;SDS_P2;PMS_P1;PMS_P2;Temp;Humidity;BMP_temperature;BMP_pressure;BME280_temperature;BME280_humidity;BME280_pressure;Samples;Min_cycle;Max_cycle;Signal;HPM_P1;HPM_P2
2024/04/07 00:00:56;;;;;;;;;;;;;;;17.97;83.94;100817.75;5090692;28;20114;-40
2024/04/07 00:03:22;;;;;;;6.80;1.80;;;;;;;17.87;84.12;100820.53;5089672;28;19934;-40
2024/04/07 00:05:53;;;;;;;4.40;1.73;;;;;;;17.85;82.69;100825.44;5081042;28;20068;-40
2024/04/07 00:08:19;;;;;;;4.57;1.92;;;;;;;17.90;81.88;100849.22;5076030;28;20024;-40
2024/04/07 00:10:44;;;;;;;8.82;2.55;;;;;;;17.97;81.58;100861.53;5076835;28;20503;-41
2024/04/07 00:13:09;;;;;;;;;;;;;;;18.05;81.71;100868.31;5076618;28;20427;-41
2024/04/07 00:15:35;;;;;;;4.33;1.77;;;;;;;18.10;79.21;100865.56;5076518;28;19913;-41
2024/04/07 00:18:04;;;;;;;6.07;1.50;;;;;;;18.07;81.12;100841.50;5075641;28;20020;-41
2024/04/07 00:20:29;;;;;;;5.40;1.48;;;;;;;18.09;79.39;100842.03;5075872;28;20580;-41
2024/04/07 00:22:54;;;;;;;;;;;;;;;18.19;79.74;100861.13;5076189;28;20116;-41
2024/04/07 00:25:20;;;;;;;4.20;1.63;;;;;;;18.14;78.92;100839.28;5075762;28;19966;-40
2024/04/07 00:27:45;;;;;;;;;;;;;;;18.26;80.19;100866.31;5076100;28;20279;-41
2024/04/07 00:30:10;;;;;;;5.20;1.63;;;;;;;18.18;78.68;100866.91;5075772;28;19919;-41
2024/04/07 00:32:36;;;;;;;3.53;1.35;;;;;;;18.24;78.83;100876.72;5075659;28;20032;-41
2024/04/07 00:35:01;;;;;;;;;;;;;;;18.30;79.31;100872.03;5075999;28;20039;-41
2024/04/07 00:37:28;;;;;;;7.50;1.85;;;;;;;18.30;78.83;100874.75;5075757;28;19920;-41
2024/04/07 00:39:56;;;;;;;5.30;2.10;;;;;;;18.25;79.31;100883.81;5075467;28;20100;-41
2024/04/07 00:42:22;;;;;;;4.68;1.50;;;;;;;18.35;78.27;100893.91;5075387;28;20024;-41
2024/04/07 00:44:47;;;;;;;5.82;2.15;;;;;;;18.28;78.56;100894.22;5075787;28;20082;-41
2024/04/07 00:47:13;;;;;;;4.25;1.42;;;;;;;18.35;79.27;100922.13;5075337;28;20025;-41
2024/04/07 00:49:41;;;;;;;4.00;1.50;;;;;;;18.35;79.61;100938.56;5076115;28;20028;-41
2024/04/07 00:52:06;;;;;;;4.72;1.80;;;;;;;18.35;79.73;100935.81;5075362;28;20024;-41
2024/04/07 00:54:32;;;;;;;5.13;1.40;;;;;;;18.27;79.67;100906.28;5075031;28;20119;-40
2024/04/07 00:56:57;;;;;;;;;;;;;;;18.41;80.53;100909.22;5075846;28;20425;-40
2024/04/07 00:59:23;;;;;;;4.47;1.70;;;;;;;18.31;81.49;100906.53;5076052;28;19974;-40
2024/04/07 01:01:48;;;;;;;4.13;1.75;;;;;;;18.28;82.18;100905.16;5075106;28;20086;-40
2024/04/07 01:04:13;;;;;;;;;;;;;;;18.34;81.37;100927.84;5076333;28;20452;-40
2024/04/07 01:06:38;;;;;;;6.33;1.40;;;;;;;18.23;81.19;100947.06;5074729;28;19959;-40
2024/04/07 01:09:04;;;;;;;4.60;1.80;;;;;;;18.20;83.29;100953.13;5075717;28;20048;-40
2024/04/07 01:11:30;;;;;;;;;;;;;;;18.28;81.75;100970.88;5074968;28;20028;-40
2024/04/07 01:13:56;;;;;;;3.72;1.55;;;;;;;18.15;83.56;100987.88;5075586;28;19918;-40
2024/04/07 01:16:22;;;;;;;7.18;1.83;;;;;;;18.06;83.84;100957.53;5074022;28;20106;-41
2024/04/07 01:18:47;;;;;;;5.97;1.63;;;;;;;18.06;84.41;100957.53;5074337;28;20082;-40
2024/04/07 01:21:13;;;;;;;7.20;1.88;;;;;;;18.03;84.85;100979.97;5075129;28;20441;-40
2024/04/07 01:23:39;;;;;;;;;;;;;;;18.08;84.59;100996.38;5075682;28;20089;-41
2024/04/07 01:26:04;;;;;;;5.97;1.73;;;;;;;17.94;85.57;100989.84;5074532;28;19955;-40
2024/04/07 01:28:30;;;;;;;;;;;;;;;18.00;85.07;100985.97;5075256;28;20036;-40
2024/04/07 01:30:55;;;;;;;3.47;1.50;;;;;;;17.83;87.25;100988.22;5074556;28;20003;-40
2024/04/07 01:33:21;;;;;;;5.38;1.50;;;;;;;17.83;87.09;101001.91;5074914;28;20044;-41
2024/04/07 01:35:46;;;;;;;4.22;1.65;;;;;;;17.73;88.25;100989.06;5074974;28;20029;-40
2024/04/07 01:38:12;;;;;;;;;;;;;;;17.83;87.67;100993.69;5074690;28;20059;-41
2024/04/07 01:40:37;;;;;;;3.40;1.20;;;;;;;17.69;88.39;100994.22;5074614;28;19915;-40
2024/04/07 01:43:03;;;;;;;;;;;;;;;17.77;88.47;100990.16;5074959;28;20028;-40
2024/04/07 01:45:28;;;;;;;4.10;1.60;;;;;;;17.63;89.71;101022.66;5074193;28;19908;-41
2024/04/07 01:47:53;;;;;;;;;;;;;;;17.67;89.35;101023.75;5075096;28;20116;-41
2024/04/07 01:50:19;;;;;;;5.17;1.03;;;;;;;17.47;91.79;101015.53;5074429;28;20322;-40
2024/04/07 01:52:44;;;;;;;;;;;;;;;17.56;91.40;101046.72;5074411;28;20366;-40
2024/04/07 01:55:09;;;;;;;4.77;1.30;;;;;;;17.38;91.65;101039.88;5075121;28;19967;-40
2024/04/07 01:57:38;;;;;;;2.92;1.08;;;;;;;17.38;91.89;101050.00;5074267;28;20417;-41
2024/04/07 02:00:07;;;;;;;4.45;1.20;;;;;;;17.34;91.65;101065.28;5073959;28;20349;-41
2024/04/07 02:02:35;;;;;;;2.28;1.10;;;;;;;17.30;93.31;101072.38;5073555;28;20047;-41
2024/04/07 02:05:00;;;;;;;3.22;1.27;;;;;;;17.19;93.45;101077.84;5073542;28;20492;-41
2024/04/07 02:07:26;;;;;;;2.78;1.10;;;;;;;17.22;93.39;101112.78;5074144;28;20033;-41
2024/04/07 02:09:51;;;;;;;;;;;;;;;17.27;93.88;101120.19;5074504;28;20130;-40
2024/04/07 02:12:16;;;;;;;4.37;1.10;;;;;;;17.14;95.38;101132.47;5073677;28;19920;-41
2024/04/07 02:14:42;;;;;;;;;;;;;;;17.19;94.82;101145.31;5074625;28;20031;-41
2024/04/07 02:17:08;;;;;;;5.78;1.50;;;;;;;17.01;96.27;101135.69;5073586;28;19912;-41
2024/04/07 02:19:33;;;;;;;;;;;;;;;17.13;95.78;101144.50;5074067;28;20035;-40
2024/04/07 02:21:58;;;;;;;3.30;1.30;;;;;;;16.99;97.85;101130.50;5073337;28;19912;-40
2024/04/07 02:24:23;;;;;;;;;;;;;;;17.08;97.14;101149.09;5074002;28;20275;-40
2024/04/07 02:26:49;;;;;;;4.27;1.23;;;;;;;16.86;99.32;101132.88;5073557;28;19972;-40
2024/04/07 02:29:14;;;;;;;;;;;;;;;16.96;96.93;101141.13;5073702;28;20259;-40
2024/04/07 02:31:40;;;;;;;3.00;1.15;;;;;;;16.83;98.81;101156.06;5073724;28;19916;-41
2024/04/07 02:34:05;;;;;;;;;;;;;;;16.90;98.15;101172.25;5073807;28;20024;-40
2024/04/07 02:36:31;;;;;;;2.73;1.00;;;;;;;16.70;99.13;101154.63;5073733;28;19916;-40
2024/04/07 02:38:56;;;;;;;;;;;;;;;16.81;97.40;101166.44;5074440;28;20342;-40
2024/04/07 02:41:22;;;;;;;4.03;1.10;;;;;;;16.68;97.78;101162.25;5073324;28;19955;-40
2024/04/07 02:43:48;;;;;;;;;;;;;;;16.78;96.92;101150.59;5073474;28;20132;-40
2024/04/07 02:48:58;;;;;;;3.05;0.90;;;;;;;16.62;97.32;101146.91;5073866;28;20480;-40
2024/04/07 02:51:23;;;;;;;;;;;;;;;16.69;95.95;101150.25;5074038;28;20037;-40
2024/04/07 02:53:48;;;;;;;7.80;1.40;;;;;;;16.62;95.12;101152.38;5073714;28;19916;-41
2024/04/07 02:56:15;;;;;;;;;;;;;;;16.65;95.32;101156.50;5073606;28;20320;-41
2024/04/07 02:58:42;;;;;;;3.25;1.20;;;;;;;16.54;95.60;101158.31;5073523;28;19913;-40
2024/04/07 03:01:08;;;;;;;1.63;0.80;;;;;;;16.47;94.91;101155.03;5073126;28;20028;-40
2024/04/07 03:03:33;;;;;;;;;;;;;;;16.61;94.42;101188.16;5073602;28;20115;-40
2024/04/07 03:06:03;;;;;;;1.98;0.80;;;;;;;16.46;96.14;101169.75;5073197;28;20047;-40
2024/04/07 03:08:29;;;;;;;1.88;0.60;;;;;;;16.40;91.89;101173.53;5072890;28;20484;-40
2024/04/07 03:10:57;;;;;;;;;;;;;;;16.46;91.65;101158.84;5073911;28;20028;-40
2024/04/07 03:13:22;;;;;;;1.85;0.70;;;;;;;16.20;89.85;101150.47;5073054;28;19959;-41
2024/04/07 03:15:48;;;;;;;;;;;;;;;16.37;89.86;101168.59;5074049;28;20036;-40
2024/04/07 03:18:13;;;;;;;1.87;0.70;;;;;;;16.27;89.14;101169.34;5073043;28;20378;-40
2024/04/07 03:20:38;;;;;;;;;;;;;;;16.32;89.00;101158.47;5073468;28;20526;-40
2024/04/07 03:23:03;;;;;;;1.73;0.50;;;;;;;16.16;89.13;101156.72;5073194;28;20367;-40
2024/04/07 03:25:29;;;;;;;;;;;;;;;16.22;87.72;101161.94;5073674;28;20619;-40
2024/04/07 03:27:54;;;;;;;1.93;0.60;;;;;;;16.14;86.76;101151.50;5072611;28;19913;-40
2024/04/07 03:30:19;;;;;;;;;;;;;;;16.17;88.12;101161.88;5072349;28;20036;-40
2024/04/07 03:32:45;;;;;;;1.70;0.70;;;;;;;16.08;88.14;101171.63;5073105;28;19913;-40
2024/04/07 03:35:10;;;;;;;;;;;;;;;16.14;87.62;101173.31;5073494;28;20754;-41
2024/04/07 03:37:36;;;;;;;1.20;0.40;;;;;;;16.05;86.41;101158.50;5073089;28;19958;-40
2024/04/07 03:40:01;;;;;;;;;;;;;;;16.13;85.73;101146.31;5073991;28;20357;-40
2024/04/07 03:42:27;;;;;;;0.98;0.40;;;;;;;16.05;85.19;101144.88;5076828;28;19912;-40
2024/04/07 03:44:52;;;;;;;;;;;;;;;16.13;86.70;101141.66;5077562;28;20325;-39
2024/04/07 03:47:18;;;;;;;0.75;0.40;;;;;;;16.04;83.59;101124.13;5076213;28;19912;-40
2024/04/07 03:49:43;;;;;;;;;;;;;;;16.11;84.50;101122.03;5077475;28;20025;-40
2024/04/07 03:52:08;;;;;;;0.93;0.40;;;;;;;15.95;83.77;101109.31;5076965;28;19939;-40
2024/04/07 03:54:33;;;;;;;;;;;;;;;16.07;84.36;101122.81;5077535;28;20298;-40
2024/04/07 03:56:59;;;;;;;1.00;0.40;;;;;;;15.96;82.61;101121.91;5076373;28;20253;-40
2024/04/07 03:59:26;;;;;;;;;;;;;;;16.10;83.73;101131.25;5077027;28;20419;-40
2024/04/07 04:01:52;;;;;;;;;;;;;;;16.13;83.15;101121.75;5076389;28;20462;-40
2024/04/07 04:04:17;;;;;;;1.03;0.47;;;;;;;15.99;81.96;101105.00;5075984;28;19920;-40
2024/04/07 04:06:42;;;;;;;;;;;;;;;16.09;82.55;101102.34;5076547;28;20025;-40
2024/04/07 04:09:09;;;;;;;0.70;0.30;;;;;;;16.00;82.25;101101.19;5076167;28;19912;-40
2024/04/07 04:11:35;;;;;;;1.30;0.40;;;;;;;15.99;81.88;101106.91;5076036;28;20279;-41
2024/04/07 04:14:00;;;;;;;;;;;;;;;16.05;81.61;101112.13;5077148;28;20054;-41
2024/04/07 04:16:25;;;;;;;1.03;0.30;;;;;;;15.98;82.72;101122.44;5076028;28;19912;-41
2024/04/07 04:18:51;;;;;;;;;;;;;;;16.04;80.88;101142.41;5077290;28;20032;-41
2024/04/07 04:21:16;;;;;;;;;;;;;;;16.08;81.75;101147.09;5076270;28;19965;-41
2024/04/07 04:23:41;;;;;;;;;;;;;;;16.10;81.35;101144.09;5076245;28;19920;-41
2024/04/07 04:26:06;;;;;;;;;;;;;;;16.08;80.73;101133.44;5076210;28;19912;-41
2024/04/07 04:28:32;;;;;;;;;;;;;;;16.08;80.63;101147.09;5076230;28;19919;-40
2024/04/07 04:31:05;;;;;;;;;;;;;;;16.04;80.70;101143.22;5076188;28;19919;-40
2024/04/07 04:33:31;;;;;;;;;;;;;;;16.08;80.85;101149.81;5076299;28;19916;-40
2024/04/07 04:35:56;;;;;;;;;;;;;;;16.06;81.42;101140.25;5076786;28;19935;-40
2024/04/07 04:38:22;;;;;;;;;;;;;;;16.03;81.81;101166.13;5076456;28;20268;-40
2024/04/07 04:40:53;;;;;;;;;;;;;;;16.02;81.75;101137.22;5075987;28;20356;-41
2024/04/07 04:43:19;;;;;;;;;;;;;;;16.02;81.39;101128.22;5076126;28;19951;-40
2024/04/07 04:45:44;;;;;;;;;;;;;;;16.00;81.33;101147.53;5076386;28;20406;-41
2024/04/07 04:48:09;;;;;;;;;;;;;;;15.98;80.37;101149.72;5075702;28;19939;-41
2024/04/07 04:50:35;;;;;;;;;;;;;;;16.00;80.37;101161.19;5075754;28;20292;-41
2024/04/07 04:53:00;;;;;;;;;;;;;;;16.00;80.62;101149.47;5075601;28;19919;-41
2024/04/07 04:55:25;;;;;;;;;;;;;;;16.01;80.86;101179.22;5076532;28;19923;-40
2024/04/07 04:57:50;;;;;;;;;;;;;;;16.02;81.17;101175.41;5075595;28;19912;-41
2024/04/07 05:00:16;;;;;;;;;;;;;;;16.01;80.54;101167.50;5075654;28;19913;-41
2024/04/07 05:02:41;;;;;;;;;;;;;;;16.00;80.81;101177.56;5075518;28;19951;-40
2024/04/07 05:05:09;;;;;;;;;;;;;;;15.98;80.99;101179.72;5075795;28;19912;-41
2024/04/07 05:07:34;;;;;;;;;;;;;;;15.98;81.96;101182.47;5075385;28;19999;-41
2024/04/07 05:09:59;;;;;;;;;;;;;;;15.83;82.15;101182.31;5075092;28;19966;-41
2024/04/07 05:12:25;;;;;;;;;;;;;;;15.92;82.53;101191.69;5075371;28;19913;-41
2024/04/07 05:14:50;;;;;;;;;;;;;;;15.88;82.19;101190.53;5075133;28;20031;-40
2024/04/07 05:17:15;;;;;;;;;;;;;;;15.87;82.38;101194.34;5073305;28;19919;-41
2024/04/07 05:19:40;;;;;;;;;;;;;;;15.88;83.02;101199.53;5075198;28;19912;-40
2024/04/07 05:22:05;;;;;;;;;;;;;;;15.86;83.74;101189.97;5074810;28;19959;-40
2024/04/07 05:24:32;;;;;;;;;;;;;;;15.84;83.83;101200.31;5075069;28;19913;-41
2024/04/07 05:26:58;;;;;;;;;;;;;;;15.80;83.72;101196.44;5075174;28;19912;-41
2024/04/07 05:29:23;;;;;;;;;;;;;;;15.81;84.17;101187.19;5074861;28;20021;-41
2024/04/07 05:31:50;;;;;;;;;;;;;;;15.83;84.16;101194.03;5074374;28;19916;-40
2024/04/07 05:34:15;;;;;;;;;;;;;;;15.79;84.32;101209.25;5075167;28;19956;-40
2024/04/07 05:36:40;;;;;;;;;;;;;;;15.80;85.44;101210.09;5075680;28;19997;-40
2024/04/07 05:39:07;;;;;;;;;;;;;;;15.80;84.84;101204.63;5075400;28;20321;-41
2024/04/07 05:41:32;;;;;;;;;;;;;;;15.78;85.26;101202.16;5075271;28;19912;-41
2024/04/07 05:43:57;;;;;;;;;;;;;;;15.79;85.53;101209.25;5075576;28;19934;-41
2024/04/07 05:46:23;;;;;;;;;;;;;;;15.77;85.92;101216.88;5074380;28;19912;-41
2024/04/07 05:48:48;;;;;;;;;;;;;;;15.81;86.13;101225.34;5074605;28;19912;-41
2024/04/07 05:51:14;;;;;;;;;;;;;;;15.80;86.08;101231.91;5075095;28;19965;-40
2024/04/07 05:53:39;;;;;;;;;;;;;;;15.78;86.50;101226.72;5074079;28;19927;-40
2024/04/07 05:56:09;;;;;;;;;;;;;;;15.81;86.42;101234.38;5074444;28;20010;-42
2024/04/07 05:58:34;;;;;;;;;;;;;;;15.76;87.88;101245.22;5074776;28;20285;-40
2024/04/07 06:00:59;;;;;;;;;;;;;;;15.78;87.70;101250.44;5074615;28;19957;-41
2024/04/07 06:03:25;;;;;;;;;;;;;;;15.78;87.97;101255.88;5073533;28;19934;-40
2024/04/07 06:05:50;;;;;;;;;;;;;;;15.79;87.98;101257.53;5074106;28;20007;-40
2024/04/07 06:08:15;;;;;;;;;;;;;;;15.78;88.54;101261.34;5074257;28;20003;-40
2024/04/07 06:10:40;;;;;;;;;;;;;;;15.72;89.06;101262.38;5074295;28;19916;-41
2024/04/07 06:13:06;;;;;;;;;;;;;;;15.68;89.47;101259.31;5074049;28;20001;-41
2024/04/07 06:15:31;;;;;;;;;;;;;;;15.67;89.71;101269.41;5074777;28;19919;-41
2024/04/07 06:17:57;;;;;;;;;;;;;;;15.62;90.45;101269.31;5073864;28;19971;-41
2024/04/07 06:20:22;;;;;;;;;;;;;;;15.64;90.15;101275.34;5074657;28;20003;-40
2024/04/07 06:22:47;;;;;;;;;;;;;;;15.60;91.07;101284.25;5074031;28;19919;-39
2024/04/07 06:25:12;;;;;;;;;;;;;;;15.62;90.84;101282.13;5073770;28;19912;-40
2024/04/07 06:27:38;;;;;;;;;;;;;;;15.60;91.91;101293.25;5073982;28;19920;-40
2024/04/07 06:30:04;;;;;;;;;;;;;;;15.59;92.06;101288.88;5074206;28;19920;-40
2024/04/07 06:32:29;;;;;;;;;;;;;;;15.58;93.01;101284.53;5074252;28;19916;-40
2024/04/07 06:34:56;;;;;;;;;;;;;;;15.59;93.05;101275.25;5073639;28;19912;-41
2024/04/07 06:37:21;;;;;;;;;;;;;;;15.60;93.86;101276.09;5074511;28;19919;-40
2024/04/07 06:39:46;;;;;;;;;;;;;;;15.63;93.62;101286.47;5073602;28;19913;-40
2024/04/07 06:42:12;;;;;;;;;;;;;;;15.63;93.46;101281.88;5073809;28;19928;-41
2024/04/07 06:44:37;;;;;;;;;;;;;;;15.61;93.94;101281.28;5073548;28;19914;-40
2024/04/07 06:47:09;;;;;;;;;;;;;;;15.63;94.26;101281.88;5073725;28;19912;-40
2024/04/07 06:49:34;;;;;;;;;;;;;;;15.67;94.67;101298.56;5073758;28;19919;-40
2024/04/07 06:51:59;;;;;;;;;;;;;;;15.70;94.59;101285.22;5073630;28;19916;-40
2024/04/07 06:54:25;;;;;;;;;;;;;;;15.74;93.66;101288.28;5073896;28;19959;-40
2024/04/07 06:56:50;;;;;;;;;;;;;;;15.72;94.16;101295.09;5073615;28;19916;-40
2024/04/07 06:59:15;;;;;;;;;;;;;;;15.68;95.05;101287.41;5074272;28;19999;-40
2024/04/07 07:01:40;;;;;;;;;;;;;;;15.65;94.99;101292.53;5073970;28;20309;-41
2024/04/07 07:04:06;;;;;;;;;;;;;;;15.65;94.54;101301.53;5073719;28;19916;-40
2024/04/07 07:06:31;;;;;;;;;;;;;;;15.67;95.22;101309.47;5073637;28;19912;-41
2024/04/07 07:08:56;;;;;;;;;;;;;;;15.68;95.07;101308.38;5073570;28;19927;-41
2024/04/07 07:11:22;;;;;;;;;;;;;;;15.70;96.07;101311.69;5073791;28;19912;-41
2024/04/07 07:13:50;;;;;;;;;;;;;;;15.72;95.63;101311.44;5073755;28;20349;-41
2024/04/07 07:16:15;;;;;;;;;;;;;;;15.74;95.21;101315.53;5076288;28;20280;-41
2024/04/07 07:18:40;;;;;;;;;;;;;;;15.78;96.05;101321.31;5077359;28;19919;-41
2024/04/07 07:21:06;;;;;;;;;;;;;;;15.78;96.51;101322.16;5077201;28;19916;-41
2024/04/07 07:23:32;;;;;;;;;;;;;;;15.81;96.67;101328.97;5077699;28;20308;-41
2024/04/07 07:25:57;;;;;;;;;;;;;;;15.82;96.96;101336.94;5077371;28;19920;-41
2024/04/07 07:28:23;;;;;;;;;;;;;;;15.78;97.48;101330.31;5077482;28;19958;-40
2024/04/07 07:30:49;;;;;;;;;;;;;;;15.91;97.05;101337.31;5077937;28;19919;-40
2024/04/07 07:33:14;;;;;;;;;;;;;;;16.07;98.20;101339.13;5077162;28;20364;-40
2024/04/07 07:35:42;;;;;;;;;;;;;;;16.24;96.93;101341.75;5077449;28;19963;-40
2024/04/07 07:38:08;;;;;;;;;;;;;;;16.41;95.60;101338.94;5076918;28;19913;-40
2024/04/07 07:40:33;;;;;;;;;;;;;;;16.54;95.84;101341.22;5077482;28;19918;-40
2024/04/07 07:42:58;;;;;;;;;;;;;;;16.64;94.91;101357.75;5077548;28;19956;-40
2024/04/07 07:45:23;;;;;;;;;;;;;;;16.74;94.94;101351.56;5077599;28;19958;-41
2024/04/07 07:47:52;;;;;;;;;;;;;;;16.84;94.10;101345.38;5076701;28;19974;-41
2024/04/07 07:50:17;;;;;;;;;;;;;;;16.92;92.73;101355.81;5077034;28;19912;-40
2024/04/07 07:52:42;;;;;;;;;;;;;;;17.01;93.87;101348.78;5077127;28;19913;-41
2024/04/07 07:55:07;;;;;;;;;;;;;;;17.04;92.42;101348.25;5076856;28;19916;-41
2024/04/07 07:57:33;;;;;;;;;;;;;;;17.10;92.35;101360.88;5076756;28;19960;-41
2024/04/07 07:59:58;;;;;;;;;;;;;;;17.11;91.55;101357.06;5076816;28;19912;-41
2024/04/07 08:02:24;;;;;;;;;;;;;;;17.11;91.01;101361.69;5076452;28;19919;-41
2024/04/07 08:04:49;;;;;;;;;;;;;;;17.14;91.82;101356.53;5076609;28;20391;-41
2024/04/07 08:07:15;;;;;;;;;;;;;;;17.22;91.31;101369.69;5076837;28;19912;-41
2024/04/07 08:09:40;;;;;;;;;;;;;;;17.32;92.55;101362.66;5077407;28;19978;-41
2024/04/07 08:12:06;;;;;;;;;;;;;;;17.34;90.99;101360.50;5076221;28;19916;-41
2024/04/07 08:14:31;;;;;;;;;;;;;;;17.44;91.09;101372.31;5076714;28;19912;-41
2024/04/07 08:16:56;;;;;;;;;;;;;;;17.54;89.90;101382.50;5076432;28;19916;-41
2024/04/07 08:19:22;;;;;;;;;;;;;;;17.68;90.10;101371.91;5076447;28;19918;-41
2024/04/07 08:21:47;;;;;;;;;;;;;;;17.79;88.63;101379.09;5076648;28;19965;-41
2024/04/07 08:24:12;;;;;;;;;;;;;;;17.89;90.25;101372.84;5076314;28;19912;-41
2024/04/07 08:26:38;;;;;;;;;;;;;;;18.04;89.30;101380.28;5075822;28;19978;-41
2024/04/07 08:29:04;;;;;;;;;;;;;;;18.19;88.43;101380.34;5075932;28;19912;-41
2024/04/07 08:31:29;;;;;;;;;;;;;;;18.31;85.45;101385.59;5076116;28;19916;-41
2024/04/07 08:33:54;;;;;;;;;;;;;;;18.23;85.92;101385.00;5076048;28;19923;-40
2024/04/07 08:36:19;;;;;;;;;;;;;;;18.22;85.04;101375.16;5076060;28;19917;-41
2024/04/07 08:38:45;;;;;;;;;;;;;;;18.29;84.70;101374.91;5076009;28;19912;-41
2024/04/07 08:41:10;;;;;;;;;;;;;;;18.24;83.97;101381.19;5075968;28;19966;-41
2024/04/07 08:43:38;;;;;;;;;;;;;;;18.24;84.30;101378.44;5076541;28;20011;-41
2024/04/07 08:46:05;;;;;;;;;;;;;;;18.26;81.34;101375.47;5076138;28;19916;-41
2024/04/07 08:48:31;;;;;;;;;;;;;;;18.32;82.07;101382.59;5076798;28;19916;-41
2024/04/07 08:50:56;;;;;;;;;;;;;;;18.37;82.82;101384.50;5075530;28;19963;-41
2024/04/07 08:53:21;;;;;;;;;;;;;;;18.42;81.06;101376.31;5075233;28;19927;-41
2024/04/07 08:55:48;;;;;;;;;;;;;;;18.48;80.45;101373.31;5076049;28;19942;-41
2024/04/07 08:58:14;;;;;;;;;;;;;;;18.60;81.69;101380.47;5075415;28;19913;-41
2024/04/07 09:00:43;;;;;;;;;;;;;;;18.62;80.94;101384.56;5075339;28;20372;-41
2024/04/07 09:03:09;;;;;;;;;;;;;;;18.70;81.45;101384.06;5075591;28;19967;-41
2024/04/07 09:05:34;;;;;;;;;;;;;;;18.82;80.60;101386.53;5075818;28;19983;-40
2024/04/07 09:08:00;;;;;;;;;;;;;;;18.97;80.67;101388.44;5075193;28;19912;-40
2024/04/07 09:10:25;;;;;;;;;;;;;;;19.13;82.09;101392.00;5075455;28;19912;-45
2024/04/07 09:12:51;;;;;;;;;;;;;;;19.20;76.42;101398.88;5074432;28;20009;-40
2024/04/07 09:15:16;;;;;;;;;;;;;;;19.16;75.56;101381.31;5075577;28;19966;-40
2024/04/07 09:17:42;;;;;;;;;;;;;;;19.24;76.78;101383.50;5074951;28;20351;-41
2024/04/07 09:20:17;;;;;;;;;;;;;;;19.24;76.90;101390.94;5075079;28;19912;-41
2024/04/07 09:22:42;;;;;;;;;;;;;;;19.33;74.89;101392.00;5075269;28;20288;-41
2024/04/07 09:25:09;;;;;;;;;;;;;;;19.30;73.55;101378.84;5075134;28;19916;-40
2024/04/07 09:27:34;;;;;;;;;;;;;;;19.29;73.76;101394.47;5075345;28;19935;-40
2024/04/07 09:29:59;;;;;;;;;;;;;;;19.31;74.39;101385.97;5075295;28;20356;-40
2024/04/07 09:32:24;;;;;;;;;;;;;;;19.29;73.92;101374.47;5074965;28;20326;-40
2024/04/07 09:34:50;;;;;;;;;;;;;;;19.34;72.89;101377.19;5076264;28;20008;-40
2024/04/07 09:37:15;;;;;;;;;;;;;;;19.39;71.19;101396.38;5074601;28;20272;-40
2024/04/07 09:39:41;;;;;;;;;;;;;;;19.32;69.15;101393.09;5074969;28;19970;-41
2024/04/07 09:42:07;;;;;;;;;;;;;;;19.25;70.98;101382.41;5075416;28;19912;-41
2024/04/07 09:44:33;;;;;;;;;;;;;;;19.31;68.78;101388.72;5074860;28;19913;-41
2024/04/07 09:47:01;;;;;;;;;;;;;;;19.35;67.95;101378.84;5075321;28;20015;-40
2024/04/07 09:49:30;;;;;;;;;;;;;;;19.32;68.56;101389.53;5074766;28;20276;-40
2024/04/07 09:51:56;;;;;;;;;;;;;;;19.40;68.23;101395.28;5074309;28;19913;-41
2024/04/07 09:54:39;;;;;;;;;;;;;;;19.50;66.99;101386.22;5074959;28;19916;-41
2024/04/07 09:57:06;;;;;;;;;;;;;;;19.51;66.87;101387.84;5074835;28;19947;-41
2024/04/07 09:59:31;;;;;;;;;;;;;;;19.56;68.15;101379.59;5074202;28;19963;-41
2024/04/07 10:01:57;;;;;;;;;;;;;;;19.57;68.30;101375.78;5074942;28;19913;-41
2024/04/07 10:04:25;;;;;;;;;;;;;;;19.44;67.62;101387.31;5074126;28;19913;-40
2024/04/07 10:06:51;;;;;;;;;;;;;;;19.39;67.44;101384.59;5074299;28;20275;-42
2024/04/07 10:09:16;;;;;;;;;;;;;;;19.40;68.69;101381.56;5075148;28;19912;-41
2024/04/07 10:11:48;;;;;;;;;;;;;;;19.45;68.67;101378.00;5074565;28;19913;-40
2024/04/07 10:14:17;;;;;;;;;;;;;;;19.48;65.16;101381.00;5074664;28;19999;-41
2024/04/07 10:16:48;;;;;;;;;;;;;;;19.59;65.87;101372.75;5074611;28;20051;-40
2024/04/07 10:19:14;;;;;;;;;;;;;;;19.73;63.51;101377.41;5074131;28;19912;-41
2024/04/07 10:21:39;;;;;;;;;;;;;;;19.73;63.02;101369.19;5074650;28;20007;-41
2024/04/07 10:24:06;;;;;;;;;;;;;;;19.75;62.52;101374.38;5074482;28;19963;-41
2024/04/07 10:26:32;;;;;;;;;;;;;;;19.73;63.21;101379.34;5074226;28;20387;-41
2024/04/07 10:28:57;;;;;;;;;;;;;;;19.69;62.69;101378.25;5074092;28;19916;-41
2024/04/07 10:31:26;;;;;;;;;;;;;;;19.75;62.67;101380.69;5073917;28;19930;-40
2024/04/07 10:33:52;;;;;;;;;;;;;;;19.84;64.46;101358.97;5074454;28;20016;-40
2024/04/07 10:36:20;;;;;;;;;;;;;;;20.06;63.23;101361.38;5074166;28;20338;-41
2024/04/07 10:38:48;;;;;;;;;;;;;;;20.17;62.66;101365.69;5073949;28;19913;-40
2024/04/07 10:41:14;;;;;;;;;;;;;;;20.19;61.17;101370.91;5073625;28;19966;-41
2024/04/07 10:43:40;;;;;;;;;;;;;;;20.14;61.25;101369.00;5073936;28;19916;-41
2024/04/07 10:46:05;;;;;;;;;;;;;;;20.18;59.89;101361.84;5074729;28;19939;-41
2024/04/07 10:48:30;;;;;;;;;;;;;;;20.24;60.60;101362.63;5074356;28;19912;-41
2024/04/07 10:51:03;;;;;;;;;;;;;;;20.15;59.83;101369.81;5073691;28;20308;-41
2024/04/07 10:53:28;;;;;;;;;;;;;;;20.20;62.21;101362.38;5073596;28;20292;-41
2024/04/07 10:55:53;;;;;;;;;;;;;;;20.31;61.31;101358.47;5073993;28;19913;-41
2024/04/07 10:58:18;;;;;;;;;;;;;;;20.46;61.83;101363.06;5073700;28;19916;-41
2024/04/07 11:00:44;;;;;;;;;;;;;;;20.65;60.31;101352.25;5073776;28;20368;-41
2024/04/07 11:03:09;;;;;;;;;;;;;;;20.85;60.79;101351.25;5074182;28;19940;-41
2024/04/07 11:05:34;;;;;;;;;;;;;;;20.97;57.60;101359.94;5073334;28;19958;-41
2024/04/07 11:07:59;;;;;;;;;;;;;;;21.07;60.12;101356.28;5073593;28;19960;-41
2024/04/07 11:10:32;;;;;;;;;;;;;;;21.17;57.65;101350.69;5074152;28;20249;-40
2024/04/07 11:13:02;;;;;;;;;;;;;;;21.15;57.18;101355.66;5074167;28;19943;-40
2024/04/07 11:15:27;;;;;;;;;;;;;;;21.25;58.97;101363.81;5074077;28;19916;-41
2024/04/07 11:17:53;;;;;;;;;;;;;;;21.30;57.55;101358.28;5073757;28;20205;-40
2024/04/07 11:20:18;;;;;;;;;;;;;;;21.29;55.52;101362.13;5073756;28;19916;-40
2024/04/07 11:22:44;;;;;;;;;;;;;;;21.23;56.83;101367.97;5073468;28;20366;-41
2024/04/07 11:25:09;;;;;;;;;;;;;;;21.34;58.97;101367.59;5073807;28;19926;-41
2024/04/07 11:27:34;;;;;;;;;;;;;;;21.44;55.09;101355.69;5073190;28;19951;-41
2024/04/07 11:30:00;;;;;;;;;;;;;;;21.45;55.11;101359.25;5073744;28;19978;-40
2024/04/07 11:32:28;;;;;;;;;;;;;;;21.54;56.37;101376.75;5073932;28;19912;-41
2024/04/07 11:34:54;;;;;;;;;;;;;;;21.63;55.27;101366.75;5073327;28;20276;-42
2024/04/07 11:37:19;;;;;;;;;;;;;;;21.70;54.19;101369.16;5073279;28;20364;-39
2024/04/07 11:39:50;;;;;;;;;;;;;;;21.67;53.02;101362.31;5074472;28;20011;-40
2024/04/07 11:42:15;;;;;;;;;;;;;;;21.68;53.24;101357.63;5074143;28;20019;-40
2024/04/07 11:44:40;;;;;;;;;;;;;;;21.64;53.72;101357.38;5073595;28;19955;-40
2024/04/07 11:47:06;;;;;;;;;;;;;;;21.64;54.93;101349.13;5073242;28;19912;-41
2024/04/07 11:49:32;;;;;;;;;;;;;;;21.66;51.41;101344.13;5073199;28;19913;-41
2024/04/07 11:51:57;;;;;;;;;;;;;;;21.74;53.72;101351.75;5073198;28;19962;-41
2024/04/07 11:54:22;;;;;;;;;;;;;;;21.85;53.93;101350.50;5073410;28;19956;-41
2024/04/07 11:56:49;;;;;;;;;;;;;;;21.87;51.19;101349.41;5073213;28;19917;-41
2024/04/07 11:59:14;;;;;;;;;;;;;;;22.03;53.38;101359.09;5073417;28;19920;-41
2024/04/07 12:01:39;;;;;;;;;;;;;;;22.09;51.76;101347.72;5074804;28;19913;-41
2024/04/07 12:04:04;;;;;;;;;;;;;;;22.08;50.70;101350.78;5076714;28;19912;-41
2024/04/07 12:06:29;;;;;;;;;;;;;;;22.07;50.36;101349.16;5077562;28;19912;-40
2024/04/07 12:08:55;;;;;;;;;;;;;;;22.04;49.08;101344.22;5077220;28;19935;-40
2024/04/07 12:11:20;;;;;;;;;;;;;;;22.04;47.98;101353.28;5076904;28;19963;-40
2024/04/07 12:13:45;;;;;;;;;;;;;;;21.91;47.18;101344.94;5076236;28;19919;-40
2024/04/07 12:16:11;;;;;;;;;;;;;;;22.01;48.13;101350.31;5076441;28;20007;-41